sensor_id;sensor_type;location;lat;lon;timestamp;P1;durP1;ratioP1;P2;durP2;ratioP2
34767;SDS011;21755;43.608;1.236;2022-10-23T00:04:18;9.27;;;2.83;;
34767;SDS011;21755;43.608;1.236;2022-10-23T00:06:45;9.68;;;3.13;;
34767;SDS011;21755;43.608;1.236;2022-10-23T00:09:13;8.15;;;2.70;;
34767;SDS011;21755;43.608;1.236;2022-10-23T00:11:41;10.02;;;2.63;;
34767;SDS011;21755;43.608;1.236;2022-10-23T00:14:09;15.32;;;3.25;;
34767;SDS011;21755;43.608;1.236;2022-10-23T00:16:35;6.38;;;2.30;;
34767;SDS011;21755;43.608;1.236;2022-10-23T00:19:01;17.00;;;2.85;;
34767;SDS011;21755;43.608;1.236;2022-10-23T00:21:28;11.13;;;3.10;;
34767;SDS011;21755;43.608;1.236;2022-10-23T00:23:54;8.95;;;3.10;;
34767;SDS011;21755;43.608;1.236;2022-10-23T00:26:20;15.82;;;3.25;;
34767;SDS011;21755;43.608;1.236;2022-10-23T00:28:47;14.20;;;2.80;;
34767;SDS011;21755;43.608;1.236;2022-10-23T00:31:17;7.72;;;2.40;;
34767;SDS011;21755;43.608;1.236;2022-10-23T00:33:44;8.80;;;3.10;;
34767;SDS011;21755;43.608;1.236;2022-10-23T00:36:12;8.02;;;2.38;;
34767;SDS011;21755;43.608;1.236;2022-10-23T00:38:39;9.05;;;2.42;;
34767;SDS011;21755;43.608;1.236;2022-10-23T00:41:06;12.68;;;3.17;;
34767;SDS011;21755;43.608;1.236;2022-10-23T00:43:34;12.32;;;2.92;;
34767;SDS011;21755;43.608;1.236;2022-10-23T00:46:18;14.55;;;3.53;;
34767;SDS011;21755;43.608;1.236;2022-10-23T00:48:44;11.98;;;3.05;;
34767;SDS011;21755;43.608;1.236;2022-10-23T00:51:10;13.82;;;2.95;;
34767;SDS011;21755;43.608;1.236;2022-10-23T00:53:35;12.07;;;2.83;;
34767;SDS011;21755;43.608;1.236;2022-10-23T00:56:02;7.80;;;3.15;;
34767;SDS011;21755;43.608;1.236;2022-10-23T00:58:28;8.45;;;2.67;;
34767;SDS011;21755;43.608;1.236;2022-10-23T01:00:54;10.50;;;3.03;;
34767;SDS011;21755;43.608;1.236;2022-10-23T01:03:25;14.18;;;2.92;;
34767;SDS011;21755;43.608;1.236;2022-10-23T01:05:53;9.77;;;2.53;;
34767;SDS011;21755;43.608;1.236;2022-10-23T01:08:38;12.88;;;3.50;;
34767;SDS011;21755;43.608;1.236;2022-10-23T01:16:48;9.57;;;2.72;;
34767;SDS011;21755;43.608;1.236;2022-10-23T01:22:13;10.68;;;3.15;;
34767;SDS011;21755;43.608;1.236;2022-10-23T01:24:56;12.98;;;2.97;;
34767;SDS011;21755;43.608;1.236;2022-10-23T01:27:32;12.00;;;3.17;;
34767;SDS011;21755;43.608;1.236;2022-10-23T01:30:05;14.25;;;3.53;;
34767;SDS011;21755;43.608;1.236;2022-10-23T01:37:54;11.02;;;2.97;;
34767;SDS011;21755;43.608;1.236;2022-10-23T01:40:32;16.00;;;3.47;;
34767;SDS011;21755;43.608;1.236;2022-10-23T01:43:04;8.27;;;3.67;;
34767;SDS011;21755;43.608;1.236;2022-10-23T01:45:38;16.50;;;3.38;;
34767;SDS011;21755;43.608;1.236;2022-10-23T01:48:11;20.98;;;3.58;;
34767;SDS011;21755;43.608;1.236;2022-10-23T01:50:40;9.35;;;3.33;;
34767;SDS011;21755;43.608;1.236;2022-10-23T01:53:07;11.30;;;3.08;;
34767;SDS011;21755;43.608;1.236;2022-10-23T01:55:33;12.88;;;2.97;;
34767;SDS011;21755;43.608;1.236;2022-10-23T01:58:03;17.02;;;3.47;;
34767;SDS011;21755;43.608;1.236;2022-10-23T02:00:31;9.48;;;3.13;;
34767;SDS011;21755;43.608;1.236;2022-10-23T02:02:58;10.52;;;3.40;;
34767;SDS011;21755;43.608;1.236;2022-10-23T02:05:27;10.45;;;2.90;;
34767;SDS011;21755;43.608;1.236;2022-10-23T02:07:54;11.93;;;3.20;;
34767;SDS011;21755;43.608;1.236;2022-10-23T02:10:20;10.35;;;3.25;;
34767;SDS011;21755;43.608;1.236;2022-10-23T02:12:55;8.77;;;3.25;;
34767;SDS011;21755;43.608;1.236;2022-10-23T02:15:29;9.82;;;3.80;;
34767;SDS011;21755;43.608;1.236;2022-10-23T02:20:35;11.30;;;3.00;;
34767;SDS011;21755;43.608;1.236;2022-10-23T02:25:53;9.05;;;2.28;;
34767;SDS011;21755;43.608;1.236;2022-10-23T02:28:25;8.02;;;3.08;;
34767;SDS011;21755;43.608;1.236;2022-10-23T02:30:57;14.00;;;3.30;;
34767;SDS011;21755;43.608;1.236;2022-10-23T02:33:27;14.50;;;3.65;;
34767;SDS011;21755;43.608;1.236;2022-10-23T02:35:55;11.05;;;2.70;;
34767;SDS011;21755;43.608;1.236;2022-10-23T02:38:28;10.10;;;3.10;;
34767;SDS011;21755;43.608;1.236;2022-10-23T02:43:37;14.88;;;4.00;;
34767;SDS011;21755;43.608;1.236;2022-10-23T02:46:24;13.32;;;3.72;;
34767;SDS011;21755;43.608;1.236;2022-10-23T02:48:59;15.43;;;3.42;;
34767;SDS011;21755;43.608;1.236;2022-10-23T02:52:05;7.22;;;2.65;;
34767;SDS011;21755;43.608;1.236;2022-10-23T03:00:36;12.07;;;3.65;;
34767;SDS011;21755;43.608;1.236;2022-10-23T03:03:12;9.55;;;3.22;;
34767;SDS011;21755;43.608;1.236;2022-10-23T03:05:41;14.07;;;3.20;;
34767;SDS011;21755;43.608;1.236;2022-10-23T03:08:09;12.07;;;3.58;;
34767;SDS011;21755;43.608;1.236;2022-10-23T03:10:36;14.73;;;3.05;;
34767;SDS011;21755;43.608;1.236;2022-10-23T03:13:03;13.23;;;3.30;;
34767;SDS011;21755;43.608;1.236;2022-10-23T03:15:28;14.63;;;3.03;;
34767;SDS011;21755;43.608;1.236;2022-10-23T03:17:54;11.48;;;3.53;;
34767;SDS011;21755;43.608;1.236;2022-10-23T03:20:20;12.68;;;3.97;;
34767;SDS011;21755;43.608;1.236;2022-10-23T03:22:46;12.05;;;3.22;;
34767;SDS011;21755;43.608;1.236;2022-10-23T03:25:12;7.75;;;3.33;;
34767;SDS011;21755;43.608;1.236;2022-10-23T03:27:38;13.48;;;4.00;;
34767;SDS011;21755;43.608;1.236;2022-10-23T03:30:05;14.02;;;3.65;;
34767;SDS011;21755;43.608;1.236;2022-10-23T03:32:31;10.63;;;3.17;;
34767;SDS011;21755;43.608;1.236;2022-10-23T03:34:57;17.08;;;2.88;;
34767;SDS011;21755;43.608;1.236;2022-10-23T03:37:23;13.07;;;3.85;;
34767;SDS011;21755;43.608;1.236;2022-10-23T03:39:49;11.18;;;3.70;;
34767;SDS011;21755;43.608;1.236;2022-10-23T03:42:15;14.65;;;3.78;;
34767;SDS011;21755;43.608;1.236;2022-10-23T03:44:41;15.35;;;4.43;;
34767;SDS011;21755;43.608;1.236;2022-10-23T03:47:07;21.08;;;4.75;;
34767;SDS011;21755;43.608;1.236;2022-10-23T03:49:35;15.23;;;3.38;;
34767;SDS011;21755;43.608;1.236;2022-10-23T03:52:02;13.90;;;3.75;;
34767;SDS011;21755;43.608;1.236;2022-10-23T03:54:28;11.95;;;3.42;;
34767;SDS011;21755;43.608;1.236;2022-10-23T03:56:55;11.63;;;4.35;;
34767;SDS011;21755;43.608;1.236;2022-10-23T03:59:21;14.48;;;4.15;;
34767;SDS011;21755;43.608;1.236;2022-10-23T04:01:47;8.75;;;3.15;;
34767;SDS011;21755;43.608;1.236;2022-10-23T04:04:13;12.63;;;3.85;;
34767;SDS011;21755;43.608;1.236;2022-10-23T04:06:39;18.48;;;4.07;;
34767;SDS011;21755;43.608;1.236;2022-10-23T04:09:05;13.90;;;3.47;;
34767;SDS011;21755;43.608;1.236;2022-10-23T04:11:31;16.30;;;3.80;;
34767;SDS011;21755;43.608;1.236;2022-10-23T04:13:57;17.80;;;3.55;;
34767;SDS011;21755;43.608;1.236;2022-10-23T04:16:23;20.15;;;4.13;;
34767;SDS011;21755;43.608;1.236;2022-10-23T04:18:50;12.20;;;3.17;;
34767;SDS011;21755;43.608;1.236;2022-10-23T04:21:16;17.88;;;3.95;;
34767;SDS011;21755;43.608;1.236;2022-10-23T04:23:42;13.60;;;3.55;;
34767;SDS011;21755;43.608;1.236;2022-10-23T04:26:08;16.27;;;3.97;;
34767;SDS011;21755;43.608;1.236;2022-10-23T04:28:34;11.15;;;3.63;;
34767;SDS011;21755;43.608;1.236;2022-10-23T04:30:59;8.30;;;3.20;;
34767;SDS011;21755;43.608;1.236;2022-10-23T04:33:25;11.63;;;4.10;;
34767;SDS011;21755;43.608;1.236;2022-10-23T04:35:51;19.67;;;4.85;;
34767;SDS011;21755;43.608;1.236;2022-10-23T04:38:17;12.23;;;3.58;;
34767;SDS011;21755;43.608;1.236;2022-10-23T04:40:43;15.52;;;3.60;;
34767;SDS011;21755;43.608;1.236;2022-10-23T04:43:09;11.10;;;3.75;;
34767;SDS011;21755;43.608;1.236;2022-10-23T04:45:35;16.40;;;4.30;;
34767;SDS011;21755;43.608;1.236;2022-10-23T04:48:01;17.85;;;3.97;;
34767;SDS011;21755;43.608;1.236;2022-10-23T04:50:27;13.52;;;3.50;;
34767;SDS011;21755;43.608;1.236;2022-10-23T04:52:53;16.38;;;4.00;;
34767;SDS011;21755;43.608;1.236;2022-10-23T04:55:20;12.25;;;3.72;;
34767;SDS011;21755;43.608;1.236;2022-10-23T04:57:46;11.07;;;3.63;;
34767;SDS011;21755;43.608;1.236;2022-10-23T05:00:12;14.48;;;3.60;;
34767;SDS011;21755;43.608;1.236;2022-10-23T05:02:40;13.93;;;3.47;;
34767;SDS011;21755;43.608;1.236;2022-10-23T05:05:06;9.50;;;3.45;;
34767;SDS011;21755;43.608;1.236;2022-10-23T05:07:33;12.65;;;3.60;;
34767;SDS011;21755;43.608;1.236;2022-10-23T05:09:59;13.00;;;3.85;;
34767;SDS011;21755;43.608;1.236;2022-10-23T05:12:25;12.50;;;3.85;;
34767;SDS011;21755;43.608;1.236;2022-10-23T05:14:52;14.70;;;3.80;;
34767;SDS011;21755;43.608;1.236;2022-10-23T05:17:23;10.70;;;3.53;;
34767;SDS011;21755;43.608;1.236;2022-10-23T05:19:54;12.40;;;3.65;;
34767;SDS011;21755;43.608;1.236;2022-10-23T05:22:22;18.23;;;3.92;;
34767;SDS011;21755;43.608;1.236;2022-10-23T05:24:51;15.07;;;3.72;;
34767;SDS011;21755;43.608;1.236;2022-10-23T05:27:18;14.52;;;3.35;;
34767;SDS011;21755;43.608;1.236;2022-10-23T05:29:44;8.93;;;3.38;;
34767;SDS011;21755;43.608;1.236;2022-10-23T05:32:10;14.93;;;4.20;;
34767;SDS011;21755;43.608;1.236;2022-10-23T05:34:37;14.52;;;3.63;;
34767;SDS011;21755;43.608;1.236;2022-10-23T05:37:05;13.38;;;3.03;;
34767;SDS011;21755;43.608;1.236;2022-10-23T05:39:33;15.10;;;3.45;;
34767;SDS011;21755;43.608;1.236;2022-10-23T05:41:59;15.75;;;3.85;;
34767;SDS011;21755;43.608;1.236;2022-10-23T05:44:25;11.18;;;3.15;;
34767;SDS011;21755;43.608;1.236;2022-10-23T05:46:51;13.18;;;3.50;;
34767;SDS011;21755;43.608;1.236;2022-10-23T05:49:17;18.13;;;4.00;;
34767;SDS011;21755;43.608;1.236;2022-10-23T05:51:43;17.85;;;3.95;;
34767;SDS011;21755;43.608;1.236;2022-10-23T05:54:08;10.32;;;3.35;;
34767;SDS011;21755;43.608;1.236;2022-10-23T05:56:35;15.88;;;3.38;;
34767;SDS011;21755;43.608;1.236;2022-10-23T05:59:02;16.98;;;3.22;;
34767;SDS011;21755;43.608;1.236;2022-10-23T06:01:29;12.95;;;3.42;;
34767;SDS011;21755;43.608;1.236;2022-10-23T06:03:55;16.35;;;3.58;;
34767;SDS011;21755;43.608;1.236;2022-10-23T06:06:22;14.60;;;3.20;;
34767;SDS011;21755;43.608;1.236;2022-10-23T06:08:48;13.68;;;3.55;;
34767;SDS011;21755;43.608;1.236;2022-10-23T06:11:14;16.50;;;3.65;;
34767;SDS011;21755;43.608;1.236;2022-10-23T06:13:43;21.02;;;3.88;;
34767;SDS011;21755;43.608;1.236;2022-10-23T06:16:11;17.20;;;4.45;;
34767;SDS011;21755;43.608;1.236;2022-10-23T06:18:38;16.40;;;4.30;;
34767;SDS011;21755;43.608;1.236;2022-10-23T06:21:05;16.42;;;3.55;;
34767;SDS011;21755;43.608;1.236;2022-10-23T06:23:32;14.38;;;3.80;;
34767;SDS011;21755;43.608;1.236;2022-10-23T06:25:59;18.70;;;3.65;;
34767;SDS011;21755;43.608;1.236;2022-10-23T06:28:26;15.07;;;3.42;;
34767;SDS011;21755;43.608;1.236;2022-10-23T06:30:52;17.15;;;3.90;;
34767;SDS011;21755;43.608;1.236;2022-10-23T06:33:18;14.75;;;3.50;;
34767;SDS011;21755;43.608;1.236;2022-10-23T06:35:44;13.20;;;3.15;;
34767;SDS011;21755;43.608;1.236;2022-10-23T06:38:10;16.58;;;3.83;;
34767;SDS011;21755;43.608;1.236;2022-10-23T06:40:36;15.13;;;3.97;;
34767;SDS011;21755;43.608;1.236;2022-10-23T06:43:03;13.30;;;3.55;;
34767;SDS011;21755;43.608;1.236;2022-10-23T06:45:30;14.70;;;3.50;;
34767;SDS011;21755;43.608;1.236;2022-10-23T06:47:58;8.00;;;3.05;;
34767;SDS011;21755;43.608;1.236;2022-10-23T06:50:24;18.92;;;4.18;;
34767;SDS011;21755;43.608;1.236;2022-10-23T06:52:50;16.67;;;4.13;;
34767;SDS011;21755;43.608;1.236;2022-10-23T06:55:17;16.83;;;4.07;;
34767;SDS011;21755;43.608;1.236;2022-10-23T06:57:43;18.02;;;3.75;;
34767;SDS011;21755;43.608;1.236;2022-10-23T07:00:09;12.02;;;3.67;;
34767;SDS011;21755;43.608;1.236;2022-10-23T07:02:36;19.05;;;3.95;;
34767;SDS011;21755;43.608;1.236;2022-10-23T07:05:02;13.05;;;3.60;;
34767;SDS011;21755;43.608;1.236;2022-10-23T07:07:29;15.00;;;3.45;;
34767;SDS011;21755;43.608;1.236;2022-10-23T07:09:55;10.38;;;3.85;;
34767;SDS011;21755;43.608;1.236;2022-10-23T07:12:21;18.83;;;3.95;;
34767;SDS011;21755;43.608;1.236;2022-10-23T07:14:47;17.02;;;4.00;;
34767;SDS011;21755;43.608;1.236;2022-10-23T07:17:13;17.50;;;4.18;;
34767;SDS011;21755;43.608;1.236;2022-10-23T07:19:38;14.65;;;3.78;;
34767;SDS011;21755;43.608;1.236;2022-10-23T07:22:04;17.27;;;4.32;;
34767;SDS011;21755;43.608;1.236;2022-10-23T07:24:30;19.00;;;4.07;;
34767;SDS011;21755;43.608;1.236;2022-10-23T07:27:01;14.93;;;3.92;;
34767;SDS011;21755;43.608;1.236;2022-10-23T07:29:27;21.00;;;4.90;;
34767;SDS011;21755;43.608;1.236;2022-10-23T07:31:54;19.63;;;4.72;;
34767;SDS011;21755;43.608;1.236;2022-10-23T07:34:20;19.23;;;3.67;;
34767;SDS011;21755;43.608;1.236;2022-10-23T07:36:46;13.05;;;3.85;;
34767;SDS011;21755;43.608;1.236;2022-10-23T07:39:11;16.63;;;3.97;;
34767;SDS011;21755;43.608;1.236;2022-10-23T07:41:38;21.33;;;5.28;;
34767;SDS011;21755;43.608;1.236;2022-10-23T07:44:04;15.48;;;3.38;;
34767;SDS011;21755;43.608;1.236;2022-10-23T07:46:30;17.67;;;4.82;;
34767;SDS011;21755;43.608;1.236;2022-10-23T07:48:55;20.02;;;4.50;;
34767;SDS011;21755;43.608;1.236;2022-10-23T07:51:21;19.17;;;4.18;;
34767;SDS011;21755;43.608;1.236;2022-10-23T07:53:47;17.20;;;3.72;;
34767;SDS011;21755;43.608;1.236;2022-10-23T07:56:15;19.75;;;3.78;;
34767;SDS011;21755;43.608;1.236;2022-10-23T07:58:44;16.67;;;4.63;;
34767;SDS011;21755;43.608;1.236;2022-10-23T08:01:14;20.38;;;4.63;;
34767;SDS011;21755;43.608;1.236;2022-10-23T08:03:46;15.70;;;4.20;;
34767;SDS011;21755;43.608;1.236;2022-10-23T08:06:12;17.33;;;3.47;;
34767;SDS011;21755;43.608;1.236;2022-10-23T08:08:38;21.88;;;3.95;;
34767;SDS011;21755;43.608;1.236;2022-10-23T08:11:05;20.02;;;3.50;;
34767;SDS011;21755;43.608;1.236;2022-10-23T08:13:31;17.33;;;3.30;;
34767;SDS011;21755;43.608;1.236;2022-10-23T08:15:57;14.52;;;4.03;;
34767;SDS011;21755;43.608;1.236;2022-10-23T08:18:23;10.98;;;3.63;;
34767;SDS011;21755;43.608;1.236;2022-10-23T08:20:49;17.42;;;4.22;;
34767;SDS011;21755;43.608;1.236;2022-10-23T08:23:17;16.50;;;3.90;;
34767;SDS011;21755;43.608;1.236;2022-10-23T08:25:44;16.27;;;3.47;;
34767;SDS011;21755;43.608;1.236;2022-10-23T08:28:10;20.20;;;4.97;;
34767;SDS011;21755;43.608;1.236;2022-10-23T08:30:36;17.17;;;3.72;;
34767;SDS011;21755;43.608;1.236;2022-10-23T08:33:03;22.30;;;4.32;;
34767;SDS011;21755;43.608;1.236;2022-10-23T08:35:29;20.13;;;3.92;;
34767;SDS011;21755;43.608;1.236;2022-10-23T08:37:55;23.33;;;3.90;;
34767;SDS011;21755;43.608;1.236;2022-10-23T08:40:22;21.25;;;3.83;;
34767;SDS011;21755;43.608;1.236;2022-10-23T08:45:41;20.15;;;4.03;;
34767;SDS011;21755;43.608;1.236;2022-10-23T08:56:43;19.85;;;3.42;;
34767;SDS011;21755;43.608;1.236;2022-10-23T08:59:17;18.73;;;3.40;;
34767;SDS011;21755;43.608;1.236;2022-10-23T09:04:49;17.23;;;4.10;;
34767;SDS011;21755;43.608;1.236;2022-10-23T09:10:16;15.70;;;3.67;;
34767;SDS011;21755;43.608;1.236;2022-10-23T09:18:35;13.02;;;3.75;;
34767;SDS011;21755;43.608;1.236;2022-10-23T09:21:07;15.90;;;3.85;;
34767;SDS011;21755;43.608;1.236;2022-10-23T09:23:34;14.30;;;4.13;;
34767;SDS011;21755;43.608;1.236;2022-10-23T09:26:00;15.45;;;3.80;;
34767;SDS011;21755;43.608;1.236;2022-10-23T09:28:30;21.45;;;4.38;;
34767;SDS011;21755;43.608;1.236;2022-10-23T09:31:09;15.35;;;4.25;;
34767;SDS011;21755;43.608;1.236;2022-10-23T09:33:36;15.63;;;3.85;;
34767;SDS011;21755;43.608;1.236;2022-10-23T09:36:04;15.80;;;3.67;;
34767;SDS011;21755;43.608;1.236;2022-10-23T09:41:27;13.70;;;3.80;;
34767;SDS011;21755;43.608;1.236;2022-10-23T09:46:39;21.50;;;4.13;;
34767;SDS011;21755;43.608;1.236;2022-10-23T09:49:14;12.38;;;3.42;;
34767;SDS011;21755;43.608;1.236;2022-10-23T09:54:20;19.88;;;4.10;;
34767;SDS011;21755;43.608;1.236;2022-10-23T09:56:50;17.15;;;3.78;;
34767;SDS011;21755;43.608;1.236;2022-10-23T09:59:28;27.33;;;4.25;;
34767;SDS011;21755;43.608;1.236;2022-10-23T10:01:59;13.45;;;3.20;;
34767;SDS011;21755;43.608;1.236;2022-10-23T10:04:35;11.00;;;3.17;;
34767;SDS011;21755;43.608;1.236;2022-10-23T10:07:15;11.88;;;3.40;;
34767;SDS011;21755;43.608;1.236;2022-10-23T10:09:44;19.60;;;3.03;;
34767;SDS011;21755;43.608;1.236;2022-10-23T10:15:47;12.23;;;2.72;;
34767;SDS011;21755;43.608;1.236;2022-10-23T10:20:39;10.05;;;2.65;;
34767;SDS011;21755;43.608;1.236;2022-10-23T10:23:21;13.30;;;3.45;;
34767;SDS011;21755;43.608;1.236;2022-10-23T10:34:44;15.00;;;3.08;;
34767;SDS011;21755;43.608;1.236;2022-10-23T10:43:10;15.65;;;2.88;;
34767;SDS011;21755;43.608;1.236;2022-10-23T10:45:52;8.52;;;2.80;;
34767;SDS011;21755;43.608;1.236;2022-10-23T10:48:30;9.05;;;2.35;;
34767;SDS011;21755;43.608;1.236;2022-10-23T10:51:00;12.18;;;2.42;;
34767;SDS011;21755;43.608;1.236;2022-10-23T10:53:33;10.43;;;2.45;;
34767;SDS011;21755;43.608;1.236;2022-10-23T10:56:25;9.75;;;2.65;;
34767;SDS011;21755;43.608;1.236;2022-10-23T10:58:57;14.27;;;3.25;;
34767;SDS011;21755;43.608;1.236;2022-10-23T11:06:56;19.07;;;1.57;;
34767;SDS011;21755;43.608;1.236;2022-10-23T11:09:26;12.32;;;1.85;;
34767;SDS011;21755;43.608;1.236;2022-10-23T11:11:53;13.02;;;1.88;;
34767;SDS011;21755;43.608;1.236;2022-10-23T11:14:23;7.45;;;1.30;;
34767;SDS011;21755;43.608;1.236;2022-10-23T11:16:51;4.35;;;0.90;;
34767;SDS011;21755;43.608;1.236;2022-10-23T11:19:25;15.70;;;1.25;;
34767;SDS011;21755;43.608;1.236;2022-10-23T11:22:08;4.80;;;1.08;;
34767;SDS011;21755;43.608;1.236;2022-10-23T11:38:42;10.98;;;1.42;;
34767;SDS011;21755;43.608;1.236;2022-10-23T11:41:26;5.47;;;0.80;;
34767;SDS011;21755;43.608;1.236;2022-10-23T11:43:58;5.22;;;1.10;;
34767;SDS011;21755;43.608;1.236;2022-10-23T11:46:34;9.32;;;1.02;;
34767;SDS011;21755;43.608;1.236;2022-10-23T11:49:03;7.30;;;1.27;;
34767;SDS011;21755;43.608;1.236;2022-10-23T11:51:43;4.20;;;0.90;;
34767;SDS011;21755;43.608;1.236;2022-10-23T11:56:54;10.40;;;1.20;;
34767;SDS011;21755;43.608;1.236;2022-10-23T11:59:31;4.70;;;1.05;;
34767;SDS011;21755;43.608;1.236;2022-10-23T12:01:59;5.72;;;1.15;;
34767;SDS011;21755;43.608;1.236;2022-10-23T12:07:13;6.03;;;1.17;;
34767;SDS011;21755;43.608;1.236;2022-10-23T12:12:28;4.55;;;0.93;;
34767;SDS011;21755;43.608;1.236;2022-10-23T12:15:38;2.78;;;1.00;;
34767;SDS011;21755;43.608;1.236;2022-10-23T12:17:47;8.77;;;1.17;;
34767;SDS011;21755;43.608;1.236;2022-10-23T12:20:18;5.35;;;1.27;;
34767;SDS011;21755;43.608;1.236;2022-10-23T12:23:14;7.07;;;1.50;;
34767;SDS011;21755;43.608;1.236;2022-10-23T12:25:55;5.65;;;1.50;;
34767;SDS011;21755;43.608;1.236;2022-10-23T12:37:50;6.13;;;1.65;;
34767;SDS011;21755;43.608;1.236;2022-10-23T12:40:25;4.13;;;1.17;;
34767;SDS011;21755;43.608;1.236;2022-10-23T12:42:54;7.72;;;1.38;;
34767;SDS011;21755;43.608;1.236;2022-10-23T12:45:33;4.90;;;1.38;;
34767;SDS011;21755;43.608;1.236;2022-10-23T12:48:04;3.38;;;0.95;;
34767;SDS011;21755;43.608;1.236;2022-10-23T12:50:30;10.13;;;1.33;;
34767;SDS011;21755;43.608;1.236;2022-10-23T12:52:59;9.35;;;1.40;;
34767;SDS011;21755;43.608;1.236;2022-10-23T12:55:31;7.82;;;1.25;;
34767;SDS011;21755;43.608;1.236;2022-10-23T12:58:19;5.05;;;1.23;;
34767;SDS011;21755;43.608;1.236;2022-10-23T13:00:55;4.85;;;1.40;;
34767;SDS011;21755;43.608;1.236;2022-10-23T13:03:22;8.27;;;1.30;;
34767;SDS011;21755;43.608;1.236;2022-10-23T13:05:50;8.00;;;1.00;;
34767;SDS011;21755;43.608;1.236;2022-10-23T13:08:18;6.90;;;1.45;;
34767;SDS011;21755;43.608;1.236;2022-10-23T13:10:46;7.10;;;1.10;;
34767;SDS011;21755;43.608;1.236;2022-10-23T13:13:13;6.50;;;1.00;;
34767;SDS011;21755;43.608;1.236;2022-10-23T13:15:46;13.73;;;0.90;;
34767;SDS011;21755;43.608;1.236;2022-10-23T13:18:13;5.22;;;1.00;;
34767;SDS011;21755;43.608;1.236;2022-10-23T13:20:40;5.32;;;1.58;;
34767;SDS011;21755;43.608;1.236;2022-10-23T13:23:18;5.43;;;1.40;;
34767;SDS011;21755;43.608;1.236;2022-10-23T13:25:54;8.93;;;1.30;;
34767;SDS011;21755;43.608;1.236;2022-10-23T13:28:32;5.70;;;0.80;;
34767;SDS011;21755;43.608;1.236;2022-10-23T13:33:34;9.90;;;1.02;;
34767;SDS011;21755;43.608;1.236;2022-10-23T13:38:44;4.75;;;1.20;;
34767;SDS011;21755;43.608;1.236;2022-10-23T13:41:15;6.50;;;1.45;;
34767;SDS011;21755;43.608;1.236;2022-10-23T13:43:43;13.32;;;1.63;;
34767;SDS011;21755;43.608;1.236;2022-10-23T13:46:14;5.93;;;1.40;;
34767;SDS011;21755;43.608;1.236;2022-10-23T13:48:41;6.22;;;1.45;;
34767;SDS011;21755;43.608;1.236;2022-10-23T13:51:11;3.65;;;1.23;;
34767;SDS011;21755;43.608;1.236;2022-10-23T13:53:41;7.03;;;1.10;;
34767;SDS011;21755;43.608;1.236;2022-10-23T13:56:08;3.90;;;1.42;;
34767;SDS011;21755;43.608;1.236;2022-10-23T13:58:38;10.57;;;1.50;;
34767;SDS011;21755;43.608;1.236;2022-10-23T14:01:04;4.05;;;1.30;;
34767;SDS011;21755;43.608;1.236;2022-10-23T14:03:31;3.55;;;1.48;;
34767;SDS011;21755;43.608;1.236;2022-10-23T14:05:57;6.10;;;1.25;;
34767;SDS011;21755;43.608;1.236;2022-10-23T14:08:23;3.83;;;1.40;;
34767;SDS011;21755;43.608;1.236;2022-10-23T14:10:49;6.60;;;1.50;;
34767;SDS011;21755;43.608;1.236;2022-10-23T14:13:15;8.93;;;1.67;;
34767;SDS011;21755;43.608;1.236;2022-10-23T14:15:40;10.02;;;1.83;;
34767;SDS011;21755;43.608;1.236;2022-10-23T14:18:06;7.70;;;1.75;;
34767;SDS011;21755;43.608;1.236;2022-10-23T14:20:32;14.30;;;1.77;;
34767;SDS011;21755;43.608;1.236;2022-10-23T14:22:58;9.13;;;2.33;;
34767;SDS011;21755;43.608;1.236;2022-10-23T14:25:24;9.50;;;1.55;;
34767;SDS011;21755;43.608;1.236;2022-10-23T14:27:50;7.68;;;1.70;;
34767;SDS011;21755;43.608;1.236;2022-10-23T14:30:16;5.47;;;1.40;;
34767;SDS011;21755;43.608;1.236;2022-10-23T14:32:42;5.50;;;1.83;;
34767;SDS011;21755;43.608;1.236;2022-10-23T14:35:09;7.13;;;1.50;;
34767;SDS011;21755;43.608;1.236;2022-10-23T14:37:35;10.25;;;1.65;;
34767;SDS011;21755;43.608;1.236;2022-10-23T14:40:00;7.43;;;1.85;;
34767;SDS011;21755;43.608;1.236;2022-10-23T14:42:27;13.88;;;1.70;;
34767;SDS011;21755;43.608;1.236;2022-10-23T14:44:58;12.35;;;2.40;;
34767;SDS011;21755;43.608;1.236;2022-10-23T14:47:25;10.90;;;2.22;;
34767;SDS011;21755;43.608;1.236;2022-10-23T14:49:51;10.90;;;1.95;;
34767;SDS011;21755;43.608;1.236;2022-10-23T14:52:17;8.45;;;1.60;;
34767;SDS011;21755;43.608;1.236;2022-10-23T14:54:43;8.88;;;1.95;;
34767;SDS011;21755;43.608;1.236;2022-10-23T14:57:09;7.18;;;1.92;;
34767;SDS011;21755;43.608;1.236;2022-10-23T14:59:40;10.65;;;1.95;;
34767;SDS011;21755;43.608;1.236;2022-10-23T15:02:07;8.30;;;1.85;;
34767;SDS011;21755;43.608;1.236;2022-10-23T15:04:34;8.82;;;2.33;;
34767;SDS011;21755;43.608;1.236;2022-10-23T15:07:00;12.13;;;1.70;;
34767;SDS011;21755;43.608;1.236;2022-10-23T15:09:26;7.90;;;1.88;;
34767;SDS011;21755;43.608;1.236;2022-10-23T15:11:52;17.55;;;2.00;;
34767;SDS011;21755;43.608;1.236;2022-10-23T15:14:18;8.73;;;1.92;;
34767;SDS011;21755;43.608;1.236;2022-10-23T15:16:44;7.82;;;1.73;;
34767;SDS011;21755;43.608;1.236;2022-10-23T15:19:10;10.20;;;2.45;;
34767;SDS011;21755;43.608;1.236;2022-10-23T15:21:38;8.02;;;1.70;;
34767;SDS011;21755;43.608;1.236;2022-10-23T15:24:04;10.30;;;1.85;;
34767;SDS011;21755;43.608;1.236;2022-10-23T15:26:30;9.98;;;1.63;;
34767;SDS011;21755;43.608;1.236;2022-10-23T15:28:57;16.20;;;2.53;;
34767;SDS011;21755;43.608;1.236;2022-10-23T15:33:53;12.52;;;2.40;;
34767;SDS011;21755;43.608;1.236;2022-10-23T15:36:22;6.18;;;1.88;;
34767;SDS011;21755;43.608;1.236;2022-10-23T15:38:49;10.43;;;2.30;;
34767;SDS011;21755;43.608;1.236;2022-10-23T15:41:16;13.65;;;1.95;;
34767;SDS011;21755;43.608;1.236;2022-10-23T15:43:46;4.10;;;1.85;;
34767;SDS011;21755;43.608;1.236;2022-10-23T15:46:12;10.40;;;2.13;;
34767;SDS011;21755;43.608;1.236;2022-10-23T15:48:37;8.45;;;1.27;;
34767;SDS011;21755;43.608;1.236;2022-10-23T15:51:03;7.85;;;2.00;;
34767;SDS011;21755;43.608;1.236;2022-10-23T15:53:29;11.38;;;2.05;;
34767;SDS011;21755;43.608;1.236;2022-10-23T15:55:56;7.18;;;1.73;;
34767;SDS011;21755;43.608;1.236;2022-10-23T15:58:23;8.00;;;1.85;;
34767;SDS011;21755;43.608;1.236;2022-10-23T16:00:49;9.60;;;1.73;;
34767;SDS011;21755;43.608;1.236;2022-10-23T16:03:15;5.43;;;1.60;;
34767;SDS011;21755;43.608;1.236;2022-10-23T16:05:41;10.93;;;1.67;;
34767;SDS011;21755;43.608;1.236;2022-10-23T16:08:07;12.95;;;2.17;;
34767;SDS011;21755;43.608;1.236;2022-10-23T16:10:37;5.95;;;1.73;;
34767;SDS011;21755;43.608;1.236;2022-10-23T16:13:05;8.15;;;1.85;;
34767;SDS011;21755;43.608;1.236;2022-10-23T16:15:33;8.48;;;1.80;;
34767;SDS011;21755;43.608;1.236;2022-10-23T16:18:00;9.25;;;1.80;;
34767;SDS011;21755;43.608;1.236;2022-10-23T16:20:25;8.13;;;1.98;;
34767;SDS011;21755;43.608;1.236;2022-10-23T16:22:51;12.48;;;1.77;;
34767;SDS011;21755;43.608;1.236;2022-10-23T16:25:17;8.93;;;1.90;;
34767;SDS011;21755;43.608;1.236;2022-10-23T16:27:43;12.90;;;1.85;;
34767;SDS011;21755;43.608;1.236;2022-10-23T16:30:09;14.20;;;1.80;;
34767;SDS011;21755;43.608;1.236;2022-10-23T16:32:40;12.80;;;1.92;;
34767;SDS011;21755;43.608;1.236;2022-10-23T16:35:07;7.43;;;1.50;;
34767;SDS011;21755;43.608;1.236;2022-10-23T16:37:33;8.73;;;1.55;;
34767;SDS011;21755;43.608;1.236;2022-10-23T16:39:59;4.72;;;1.55;;
34767;SDS011;21755;43.608;1.236;2022-10-23T16:42:26;3.97;;;1.10;;
34767;SDS011;21755;43.608;1.236;2022-10-23T16:44:52;5.32;;;1.02;;
34767;SDS011;21755;43.608;1.236;2022-10-23T16:47:20;3.17;;;1.05;;
34767;SDS011;21755;43.608;1.236;2022-10-23T16:49:46;6.55;;;0.90;;
34767;SDS011;21755;43.608;1.236;2022-10-23T16:52:12;6.85;;;1.33;;
34767;SDS011;21755;43.608;1.236;2022-10-23T16:54:38;5.82;;;1.10;;